sensor_id;sensor_type;location;lat;lon;timestamp;temperature;humidity
66213;SHT31;53015;50.046;8.238;2023-03-23T00:00:01;13.03;73.73
66213;SHT31;53015;50.046;8.238;2023-03-23T00:02:28;13.13;71.00
66213;SHT31;53015;50.046;8.238;2023-03-23T00:04:55;13.24;71.05
66213;SHT31;53015;50.046;8.238;2023-03-23T00:07:22;13.22;74.80
66213;SHT31;53015;50.046;8.238;2023-03-23T00:09:49;13.04;72.16
66213;SHT31;53015;50.046;8.238;2023-03-23T00:12:14;13.20;71.84
66213;SHT31;53015;50.046;8.238;2023-03-23T00:14:40;13.19;71.58
66213;SHT31;53015;50.046;8.238;2023-03-23T00:17:06;13.30;69.64
66213;SHT31;53015;50.046;8.238;2023-03-23T00:19:32;13.26;71.78
66213;SHT31;53015;50.046;8.238;2023-03-23T00:21:58;13.26;73.71
66213;SHT31;53015;50.046;8.238;2023-03-23T00:24:24;13.27;72.31
66213;SHT31;53015;50.046;8.238;2023-03-23T00:26:50;13.31;73.73
66213;SHT31;53015;50.046;8.238;2023-03-23T00:29:17;13.34;70.10
66213;SHT31;53015;50.046;8.238;2023-03-23T00:31:44;13.39;70.95
66213;SHT31;53015;50.046;8.238;2023-03-23T00:34:10;13.20;73.59
66213;SHT31;53015;50.046;8.238;2023-03-23T00:36:36;13.07;72.36
66213;SHT31;53015;50.046;8.238;2023-03-23T00:39:02;12.88;73.89
66213;SHT31;53015;50.046;8.238;2023-03-23T00:41:28;12.71;73.13
66213;SHT31;53015;50.046;8.238;2023-03-23T00:43:55;12.57;73.56
66213;SHT31;53015;50.046;8.238;2023-03-23T00:46:21;12.55;73.99
66213;SHT31;53015;50.046;8.238;2023-03-23T00:48:47;12.71;73.76
66213;SHT31;53015;50.046;8.238;2023-03-23T00:51:12;12.84;74.02
66213;SHT31;53015;50.046;8.238;2023-03-23T00:53:38;12.91;75.50
66213;SHT31;53015;50.046;8.238;2023-03-23T00:56:05;12.91;75.18
66213;SHT31;53015;50.046;8.238;2023-03-23T00:58:32;12.75;75.57
66213;SHT31;53015;50.046;8.238;2023-03-23T01:00:57;12.71;75.56
66213;SHT31;53015;50.046;8.238;2023-03-23T01:03:23;12.76;75.71
66213;SHT31;53015;50.046;8.238;2023-03-23T01:05:48;12.47;75.80
66213;SHT31;53015;50.046;8.238;2023-03-23T01:08:14;12.49;77.20
66213;SHT31;53015;50.046;8.238;2023-03-23T01:10:40;12.40;76.84
66213;SHT31;53015;50.046;8.238;2023-03-23T01:13:07;12.45;76.38
66213;SHT31;53015;50.046;8.238;2023-03-23T01:15:32;12.42;77.38
66213;SHT31;53015;50.046;8.238;2023-03-23T01:17:58;12.33;77.00
66213;SHT31;53015;50.046;8.238;2023-03-23T01:20:24;12.06;77.56
66213;SHT31;53015;50.046;8.238;2023-03-23T01:22:50;11.92;77.43
66213;SHT31;53015;50.046;8.238;2023-03-23T01:25:16;11.87;77.32
66213;SHT31;53015;50.046;8.238;2023-03-23T01:27:41;11.81;77.69
66213;SHT31;53015;50.046;8.238;2023-03-23T01:30:11;11.76;77.79
66213;SHT31;53015;50.046;8.238;2023-03-23T01:32:36;11.81;78.07
66213;SHT31;53015;50.046;8.238;2023-03-23T01:35:02;11.96;77.65
66213;SHT31;53015;50.046;8.238;2023-03-23T01:37:28;12.12;77.29
66213;SHT31;53015;50.046;8.238;2023-03-23T01:39:53;12.03;76.81
66213;SHT31;53015;50.046;8.238;2023-03-23T01:42:21;12.16;77.26
66213;SHT31;53015;50.046;8.238;2023-03-23T01:45:23;12.26;76.98
66213;SHT31;53015;50.046;8.238;2023-03-23T01:47:51;12.16;77.37
66213;SHT31;53015;50.046;8.238;2023-03-23T01:50:18;12.04;77.92
66213;SHT31;53015;50.046;8.238;2023-03-23T01:52:44;12.07;77.70
66213;SHT31;53015;50.046;8.238;2023-03-23T01:55:09;12.13;78.42
66213;SHT31;53015;50.046;8.238;2023-03-23T01:57:35;12.10;76.43
66213;SHT31;53015;50.046;8.238;2023-03-23T02:00:03;12.23;77.92
66213;SHT31;53015;50.046;8.238;2023-03-23T02:02:30;12.19;77.00
66213;SHT31;53015;50.046;8.238;2023-03-23T02:05:00;12.34;77.16
66213;SHT31;53015;50.046;8.238;2023-03-23T02:07:27;12.38;78.88
66213;SHT31;53015;50.046;8.238;2023-03-23T02:09:52;12.47;77.63
66213;SHT31;53015;50.046;8.238;2023-03-23T02:12:18;12.45;75.69
66213;SHT31;53015;50.046;8.238;2023-03-23T02:14:44;12.67;73.36
66213;SHT31;53015;50.046;8.238;2023-03-23T02:17:16;12.72;73.93
66213;SHT31;53015;50.046;8.238;2023-03-23T02:20:01;12.74;74.41
66213;SHT31;53015;50.046;8.238;2023-03-23T02:23:07;12.99;71.17
66213;SHT31;53015;50.046;8.238;2023-03-23T02:26:00;12.93;71.84
66213;SHT31;53015;50.046;8.238;2023-03-23T02:31:54;12.96;72.40
66213;SHT31;53015;50.046;8.238;2023-03-23T02:34:25;13.19;70.83
66213;SHT31;53015;50.046;8.238;2023-03-23T02:36:58;13.17;72.28
66213;SHT31;53015;50.046;8.238;2023-03-23T02:39:27;13.23;73.10
66213;SHT31;53015;50.046;8.238;2023-03-23T02:41:57;13.14;75.13
66213;SHT31;53015;50.046;8.238;2023-03-23T02:44:26;13.04;76.38
66213;SHT31;53015;50.046;8.238;2023-03-23T02:46:53;12.93;77.33
66213;SHT31;53015;50.046;8.238;2023-03-23T02:49:19;12.97;77.18
66213;SHT31;53015;50.046;8.238;2023-03-23T02:51:48;12.95;78.90
66213;SHT31;53015;50.046;8.238;2023-03-23T02:54:16;12.95;80.43
66213;SHT31;53015;50.046;8.238;2023-03-23T02:56:44;12.97;76.83
66213;SHT31;53015;50.046;8.238;2023-03-23T02:59:10;12.97;77.95
66213;SHT31;53015;50.046;8.238;2023-03-23T03:02:04;12.89;78.03
66213;SHT31;53015;50.046;8.238;2023-03-23T03:04:32;12.85;76.94
66213;SHT31;53015;50.046;8.238;2023-03-23T03:07:09;12.69;78.97
66213;SHT31;53015;50.046;8.238;2023-03-23T03:09:41;12.74;79.67
66213;SHT31;53015;50.046;8.238;2023-03-23T03:12:11;12.82;78.98
66213;SHT31;53015;50.046;8.238;2023-03-23T03:14:43;12.81;79.39
66213;SHT31;53015;50.046;8.238;2023-03-23T03:17:14;12.82;79.16
66213;SHT31;53015;50.046;8.238;2023-03-23T03:19:44;12.78;81.02
66213;SHT31;53015;50.046;8.238;2023-03-23T03:22:13;12.79;80.60
66213;SHT31;53015;50.046;8.238;2023-03-23T03:24:40;12.88;80.99
66213;SHT31;53015;50.046;8.238;2023-03-23T03:27:11;12.74;82.67
66213;SHT31;53015;50.046;8.238;2023-03-23T03:29:39;12.68;82.97
66213;SHT31;53015;50.046;8.238;2023-03-23T03:32:06;12.81;82.53
66213;SHT31;53015;50.046;8.238;2023-03-23T03:34:33;12.74;82.31
66213;SHT31;53015;50.046;8.238;2023-03-23T03:36:59;12.75;82.29
66213;SHT31;53015;50.046;8.238;2023-03-23T03:39:25;12.79;82.30
66213;SHT31;53015;50.046;8.238;2023-03-23T03:41:51;12.78;80.74
66213;SHT31;53015;50.046;8.238;2023-03-23T03:44:17;12.76;80.50
66213;SHT31;53015;50.046;8.238;2023-03-23T03:46:42;12.96;79.39
66213;SHT31;53015;50.046;8.238;2023-03-23T03:49:10;13.00;79.38
66213;SHT31;53015;50.046;8.238;2023-03-23T03:51:36;13.13;76.92
66213;SHT31;53015;50.046;8.238;2023-03-23T03:54:01;13.06;77.58
66213;SHT31;53015;50.046;8.238;2023-03-23T03:56:28;12.96;78.27
66213;SHT31;53015;50.046;8.238;2023-03-23T03:58:54;13.09;75.46
66213;SHT31;53015;50.046;8.238;2023-03-23T04:01:21;13.27;75.29
66213;SHT31;53015;50.046;8.238;2023-03-23T04:03:47;13.17;75.54
66213;SHT31;53015;50.046;8.238;2023-03-23T04:06:14;13.39;74.14
66213;SHT31;53015;50.046;8.238;2023-03-23T04:08:40;13.26;75.12
66213;SHT31;53015;50.046;8.238;2023-03-23T04:11:06;13.23;75.38
66213;SHT31;53015;50.046;8.238;2023-03-23T04:13:32;13.17;75.92
66213;SHT31;53015;50.046;8.238;2023-03-23T04:15:58;13.28;75.13
66213;SHT31;53015;50.046;8.238;2023-03-23T04:18:23;13.36;74.62
66213;SHT31;53015;50.046;8.238;2023-03-23T04:20:49;13.46;72.85
66213;SHT31;53015;50.046;8.238;2023-03-23T04:23:15;13.54;72.82
66213;SHT31;53015;50.046;8.238;2023-03-23T04:25:41;13.67;72.21
66213;SHT31;53015;50.046;8.238;2023-03-23T04:28:07;13.68;72.99
66213;SHT31;53015;50.046;8.238;2023-03-23T04:30:33;13.79;72.09
66213;SHT31;53015;50.046;8.238;2023-03-23T04:32:58;13.75;73.13
66213;SHT31;53015;50.046;8.238;2023-03-23T04:35:24;13.74;72.87
66213;SHT31;53015;50.046;8.238;2023-03-23T04:37:50;13.77;72.57
66213;SHT31;53015;50.046;8.238;2023-03-23T04:40:16;13.78;72.06
66213;SHT31;53015;50.046;8.238;2023-03-23T04:42:42;13.78;72.13
66213;SHT31;53015;50.046;8.238;2023-03-23T04:45:09;13.78;72.83
66213;SHT31;53015;50.046;8.238;2023-03-23T04:47:36;13.68;73.17
66213;SHT31;53015;50.046;8.238;2023-03-23T04:50:02;13.67;73.36
66213;SHT31;53015;50.046;8.238;2023-03-23T04:52:28;13.68;73.29
66213;SHT31;53015;50.046;8.238;2023-03-23T04:54:54;13.67;73.65
66213;SHT31;53015;50.046;8.238;2023-03-23T04:57:20;13.72;73.56
66213;SHT31;53015;50.046;8.238;2023-03-23T04:59:45;13.60;74.76
66213;SHT31;53015;50.046;8.238;2023-03-23T05:02:11;13.61;74.57
66213;SHT31;53015;50.046;8.238;2023-03-23T05:04:37;13.55;74.68
66213;SHT31;53015;50.046;8.238;2023-03-23T05:07:02;13.57;74.61
66213;SHT31;53015;50.046;8.238;2023-03-23T05:09:28;13.55;74.91
66213;SHT31;53015;50.046;8.238;2023-03-23T05:11:53;13.54;74.98
66213;SHT31;53015;50.046;8.238;2023-03-23T05:14:19;13.48;75.07
66213;SHT31;53015;50.046;8.238;2023-03-23T05:16:44;13.55;75.56
66213;SHT31;53015;50.046;8.238;2023-03-23T05:19:10;13.53;75.87
66213;SHT31;53015;50.046;8.238;2023-03-23T05:21:36;13.44;76.06
66213;SHT31;53015;50.046;8.238;2023-03-23T05:24:01;13.41;76.45
66213;SHT31;53015;50.046;8.238;2023-03-23T05:26:27;13.46;76.72
66213;SHT31;53015;50.046;8.238;2023-03-23T05:28:52;13.36;76.88
66213;SHT31;53015;50.046;8.238;2023-03-23T05:31:18;13.39;76.64
66213;SHT31;53015;50.046;8.238;2023-03-23T05:33:43;13.39;76.91
66213;SHT31;53015;50.046;8.238;2023-03-23T05:36:09;13.30;77.35
66213;SHT31;53015;50.046;8.238;2023-03-23T05:38:35;13.26;77.94
66213;SHT31;53015;50.046;8.238;2023-03-23T05:41:01;13.27;77.75
66213;SHT31;53015;50.046;8.238;2023-03-23T05:43:26;13.23;78.23
66213;SHT31;53015;50.046;8.238;2023-03-23T05:45:52;13.27;77.92
66213;SHT31;53015;50.046;8.238;2023-03-23T05:48:17;13.22;78.23
66213;SHT31;53015;50.046;8.238;2023-03-23T05:50:43;13.22;78.44
66213;SHT31;53015;50.046;8.238;2023-03-23T05:53:08;13.24;78.08
66213;SHT31;53015;50.046;8.238;2023-03-23T05:55:35;13.19;78.79
66213;SHT31;53015;50.046;8.238;2023-03-23T05:58:00;13.07;79.27
66213;SHT31;53015;50.046;8.238;2023-03-23T06:00:26;13.07;79.68
66213;SHT31;53015;50.046;8.238;2023-03-23T06:02:54;13.10;79.10
66213;SHT31;53015;50.046;8.238;2023-03-23T06:05:20;13.16;79.16
66213;SHT31;53015;50.046;8.238;2023-03-23T06:07:46;13.20;79.16
66213;SHT31;53015;50.046;8.238;2023-03-23T06:10:11;13.20;79.49
66213;SHT31;53015;50.046;8.238;2023-03-23T06:12:38;13.22;79.73
66213;SHT31;53015;50.046;8.238;2023-03-23T06:15:05;13.30;79.85
66213;SHT31;53015;50.046;8.238;2023-03-23T06:17:31;13.34;79.54
66213;SHT31;53015;50.046;8.238;2023-03-23T06:19:56;13.24;79.71
66213;SHT31;53015;50.046;8.238;2023-03-23T06:22:22;13.20;80.45
66213;SHT31;53015;50.046;8.238;2023-03-23T06:24:47;13.13;80.97
66213;SHT31;53015;50.046;8.238;2023-03-23T06:27:13;13.14;81.15
66213;SHT31;53015;50.046;8.238;2023-03-23T06:29:39;13.23;80.95
66213;SHT31;53015;50.046;8.238;2023-03-23T06:32:05;13.22;80.54
66213;SHT31;53015;50.046;8.238;2023-03-23T06:34:31;13.20;80.78
66213;SHT31;53015;50.046;8.238;2023-03-23T06:36:57;13.24;80.58
66213;SHT31;53015;50.046;8.238;2023-03-23T06:39:23;13.26;81.49
66213;SHT31;53015;50.046;8.238;2023-03-23T06:41:49;13.30;80.57
66213;SHT31;53015;50.046;8.238;2023-03-23T06:44:14;13.40;80.22
66213;SHT31;53015;50.046;8.238;2023-03-23T06:46:41;13.40;80.24
66213;SHT31;53015;50.046;8.238;2023-03-23T06:49:07;13.36;80.91
66213;SHT31;53015;50.046;8.238;2023-03-23T06:51:33;13.40;80.98
66213;SHT31;53015;50.046;8.238;2023-03-23T06:53:59;13.40;80.25
66213;SHT31;53015;50.046;8.238;2023-03-23T06:56:25;13.28;81.19
66213;SHT31;53015;50.046;8.238;2023-03-23T06:58:50;13.39;80.63
66213;SHT31;53015;50.046;8.238;2023-03-23T07:01:16;13.27;81.49
66213;SHT31;53015;50.046;8.238;2023-03-23T07:03:42;13.39;80.82
66213;SHT31;53015;50.046;8.238;2023-03-23T07:06:09;13.43;81.12
66213;SHT31;53015;50.046;8.238;2023-03-23T07:08:34;13.27;81.38
66213;SHT31;53015;50.046;8.238;2023-03-23T07:11:00;13.36;81.06
66213;SHT31;53015;50.046;8.238;2023-03-23T07:13:26;13.34;81.50
66213;SHT31;53015;50.046;8.238;2023-03-23T07:15:51;13.33;81.24
66213;SHT31;53015;50.046;8.238;2023-03-23T07:18:17;13.30;81.95
66213;SHT31;53015;50.046;8.238;2023-03-23T07:20:46;13.22;81.87
66213;SHT31;53015;50.046;8.238;2023-03-23T07:23:12;13.28;82.24
66213;SHT31;53015;50.046;8.238;2023-03-23T07:25:38;13.34;81.86
66213;SHT31;53015;50.046;8.238;2023-03-23T07:28:03;13.37;81.45
66213;SHT31;53015;50.046;8.238;2023-03-23T07:30:29;13.40;80.98
66213;SHT31;53015;50.046;8.238;2023-03-23T07:32:55;13.54;80.96
66213;SHT31;53015;50.046;8.238;2023-03-23T07:35:20;13.61;81.27
66213;SHT31;53015;50.046;8.238;2023-03-23T07:37:47;13.62;81.85
66213;SHT31;53015;50.046;8.238;2023-03-23T07:40:13;13.72;80.97
66213;SHT31;53015;50.046;8.238;2023-03-23T07:42:39;13.77;81.48
66213;SHT31;53015;50.046;8.238;2023-03-23T07:45:06;13.82;81.91
66213;SHT31;53015;50.046;8.238;2023-03-23T07:47:31;13.82;81.06
66213;SHT31;53015;50.046;8.238;2023-03-23T07:49:57;13.75;81.29
66213;SHT31;53015;50.046;8.238;2023-03-23T07:52:22;13.58;82.08
66213;SHT31;53015;50.046;8.238;2023-03-23T07:54:48;13.64;81.88
66213;SHT31;53015;50.046;8.238;2023-03-23T07:57:14;13.81;81.64
66213;SHT31;53015;50.046;8.238;2023-03-23T07:59:39;13.71;81.91
66213;SHT31;53015;50.046;8.238;2023-03-23T08:02:05;13.79;81.62
66213;SHT31;53015;50.046;8.238;2023-03-23T08:04:30;13.75;81.90
66213;SHT31;53015;50.046;8.238;2023-03-23T08:06:56;13.88;81.59
66213;SHT31;53015;50.046;8.238;2023-03-23T08:09:21;13.94;81.73
66213;SHT31;53015;50.046;8.238;2023-03-23T08:11:47;13.95;81.54
66213;SHT31;53015;50.046;8.238;2023-03-23T08:14:13;14.05;81.66
66213;SHT31;53015;50.046;8.238;2023-03-23T08:16:38;14.12;80.52
66213;SHT31;53015;50.046;8.238;2023-03-23T08:19:04;14.05;81.13
66213;SHT31;53015;50.046;8.238;2023-03-23T08:21:29;14.13;80.42
66213;SHT31;53015;50.046;8.238;2023-03-23T08:23:55;14.16;80.62
66213;SHT31;53015;50.046;8.238;2023-03-23T08:26:20;14.32;80.31
66213;SHT31;53015;50.046;8.238;2023-03-23T08:28:46;14.29;79.78
66213;SHT31;53015;50.046;8.238;2023-03-23T08:31:13;14.27;79.99
66213;SHT31;53015;50.046;8.238;2023-03-23T08:33:39;14.53;78.83
66213;SHT31;53015;50.046;8.238;2023-03-23T08:36:06;14.78;77.47
66213;SHT31;53015;50.046;8.238;2023-03-23T08:38:31;14.84;77.10
66213;SHT31;53015;50.046;8.238;2023-03-23T08:40:57;15.13;76.31
66213;SHT31;53015;50.046;8.238;2023-03-23T08:43:23;15.22;76.34
66213;SHT31;53015;50.046;8.238;2023-03-23T08:45:49;15.44;75.10
66213;SHT31;53015;50.046;8.238;2023-03-23T08:48:15;15.51;74.67
66213;SHT31;53015;50.046;8.238;2023-03-23T08:50:40;15.50;75.06
66213;SHT31;53015;50.046;8.238;2023-03-23T08:53:06;15.44;75.24
66213;SHT31;53015;50.046;8.238;2023-03-23T08:55:31;15.51;74.28
66213;SHT31;53015;50.046;8.238;2023-03-23T08:57:57;15.55;73.50
66213;SHT31;53015;50.046;8.238;2023-03-23T09:00:22;15.49;73.70
66213;SHT31;53015;50.046;8.238;2023-03-23T09:02:50;15.61;74.03
66213;SHT31;53015;50.046;8.238;2023-03-23T09:05:18;15.64;72.81
66213;SHT31;53015;50.046;8.238;2023-03-23T09:07:46;15.68;72.76
66213;SHT31;53015;50.046;8.238;2023-03-23T09:10:12;15.81;73.52
66213;SHT31;53015;50.046;8.238;2023-03-23T09:12:38;15.87;72.15
66213;SHT31;53015;50.046;8.238;2023-03-23T09:15:06;15.92;71.56
66213;SHT31;53015;50.046;8.238;2023-03-23T09:17:32;16.19;71.50
66213;SHT31;53015;50.046;8.238;2023-03-23T09:19:58;16.13;70.49
66213;SHT31;53015;50.046;8.238;2023-03-23T09:22:24;15.99;70.11
66213;SHT31;53015;50.046;8.238;2023-03-23T09:24:49;15.97;69.08
66213;SHT31;53015;50.046;8.238;2023-03-23T09:27:15;15.94;68.75
66213;SHT31;53015;50.046;8.238;2023-03-23T09:29:40;16.08;68.98
66213;SHT31;53015;50.046;8.238;2023-03-23T09:32:06;16.05;68.78
66213;SHT31;53015;50.046;8.238;2023-03-23T09:34:32;15.91;68.23
66213;SHT31;53015;50.046;8.238;2023-03-23T09:36:58;15.75;67.92
66213;SHT31;53015;50.046;8.238;2023-03-23T09:39:24;15.68;68.31
66213;SHT31;53015;50.046;8.238;2023-03-23T09:42:09;15.53;69.30
66213;SHT31;53015;50.046;8.238;2023-03-23T09:44:46;15.43;70.94
66213;SHT31;53015;50.046;8.238;2023-03-23T09:47:17;15.53;71.39
66213;SHT31;53015;50.046;8.238;2023-03-23T09:49:50;15.46;70.89
66213;SHT31;53015;50.046;8.238;2023-03-23T09:52:18;15.39;70.46
66213;SHT31;53015;50.046;8.238;2023-03-23T09:54:46;15.46;70.86
66213;SHT31;53015;50.046;8.238;2023-03-23T09:57:16;15.46;70.84
66213;SHT31;53015;50.046;8.238;2023-03-23T09:59:46;15.30;71.50
66213;SHT31;53015;50.046;8.238;2023-03-23T10:02:15;15.39;71.51
66213;SHT31;53015;50.046;8.238;2023-03-23T10:04:44;15.32;72.41
66213;SHT31;53015;50.046;8.238;2023-03-23T10:07:12;15.25;73.95
66213;SHT31;53015;50.046;8.238;2023-03-23T10:09:40;15.18;73.89
66213;SHT31;53015;50.046;8.238;2023-03-23T10:12:12;15.36;72.60
66213;SHT31;53015;50.046;8.238;2023-03-23T10:14:48;15.36;71.40
66213;SHT31;53015;50.046;8.238;2023-03-23T10:17:17;15.54;71.56
66213;SHT31;53015;50.046;8.238;2023-03-23T10:19:48;15.55;71.18
66213;SHT31;53015;50.046;8.238;2023-03-23T10:22:18;15.47;70.10
66213;SHT31;53015;50.046;8.238;2023-03-23T10:24:50;15.61;69.80
66213;SHT31;53015;50.046;8.238;2023-03-23T10:27:22;15.77;70.57
66213;SHT31;53015;50.046;8.238;2023-03-23T10:29:53;15.77;68.88
66213;SHT31;53015;50.046;8.238;2023-03-23T10:32:36;15.74;69.58
66213;SHT31;53015;50.046;8.238;2023-03-23T10:35:09;15.82;69.64
66213;SHT31;53015;50.046;8.238;2023-03-23T10:37:37;15.98;68.45
66213;SHT31;53015;50.046;8.238;2023-03-23T10:40:11;15.87;68.66
66213;SHT31;53015;50.046;8.238;2023-03-23T10:42:39;15.70;68.89
66213;SHT31;53015;50.046;8.238;2023-03-23T10:45:14;15.51;69.47
66213;SHT31;53015;50.046;8.238;2023-03-23T10:47:44;15.36;69.49
66213;SHT31;53015;50.046;8.238;2023-03-23T10:50:13;15.33;70.51
66213;SHT31;53015;50.046;8.238;2023-03-23T10:52:41;15.40;70.46
66213;SHT31;53015;50.046;8.238;2023-03-23T10:55:09;15.61;71.46
66213;SHT31;53015;50.046;8.238;2023-03-23T10:57:36;15.68;71.29
66213;SHT31;53015;50.046;8.238;2023-03-23T11:00:04;15.95;70.05
66213;SHT31;53015;50.046;8.238;2023-03-23T11:02:30;16.04;69.93
66213;SHT31;53015;50.046;8.238;2023-03-23T11:05:01;16.32;69.86
66213;SHT31;53015;50.046;8.238;2023-03-23T11:07:31;16.68;69.72
66213;SHT31;53015;50.046;8.238;2023-03-23T11:10:03;16.87;69.02
66213;SHT31;53015;50.046;8.238;2023-03-23T11:12:33;16.81;70.32
66213;SHT31;53015;50.046;8.238;2023-03-23T11:15:09;16.98;68.32
66213;SHT31;53015;50.046;8.238;2023-03-23T11:17:40;17.12;68.41
66213;SHT31;53015;50.046;8.238;2023-03-23T11:20:10;16.74;68.89
66213;SHT31;53015;50.046;8.238;2023-03-23T11:22:36;16.49;69.02
66213;SHT31;53015;50.046;8.238;2023-03-23T11:25:04;16.50;69.28
66213;SHT31;53015;50.046;8.238;2023-03-23T11:27:32;16.56;69.11
66213;SHT31;53015;50.046;8.238;2023-03-23T11:30:00;16.73;69.09
66213;SHT31;53015;50.046;8.238;2023-03-23T11:32:28;16.56;68.78
66213;SHT31;53015;50.046;8.238;2023-03-23T11:34:58;16.46;68.80
66213;SHT31;53015;50.046;8.238;2023-03-23T11:37:29;16.40;69.59
66213;SHT31;53015;50.046;8.238;2023-03-23T11:39:56;16.13;69.30
66213;SHT31;53015;50.046;8.238;2023-03-23T11:42:23;15.99;69.34
66213;SHT31;53015;50.046;8.238;2023-03-23T11:44:50;15.88;69.35
66213;SHT31;53015;50.046;8.238;2023-03-23T11:47:20;15.82;69.88
66213;SHT31;53015;50.046;8.238;2023-03-23T11:49:53;15.57;70.92
66213;SHT31;53015;50.046;8.238;2023-03-23T11:52:24;15.49;71.05
66213;SHT31;53015;50.046;8.238;2023-03-23T11:54:56;15.40;71.44
66213;SHT31;53015;50.046;8.238;2023-03-23T11:57:24;15.13;71.50
66213;SHT31;53015;50.046;8.238;2023-03-23T11:59:50;15.10;72.92
66213;SHT31;53015;50.046;8.238;2023-03-23T12:02:30;15.10;73.23
66213;SHT31;53015;50.046;8.238;2023-03-23T12:05:26;15.35;72.94
66213;SHT31;53015;50.046;8.238;2023-03-23T12:07:59;15.61;72.90
66213;SHT31;53015;50.046;8.238;2023-03-23T12:10:32;16.01;72.39
66213;SHT31;53015;50.046;8.238;2023-03-23T12:13:10;16.20;71.17
66213;SHT31;53015;50.046;8.238;2023-03-23T12:15:43;16.32;70.74
66213;SHT31;53015;50.046;8.238;2023-03-23T12:18:18;16.60;70.09
66213;SHT31;53015;50.046;8.238;2023-03-23T12:20:55;16.83;70.05
66213;SHT31;53015;50.046;8.238;2023-03-23T12:23:24;16.92;70.51
66213;SHT31;53015;50.046;8.238;2023-03-23T12:26:19;16.74;70.23
66213;SHT31;53015;50.046;8.238;2023-03-23T12:29:15;16.70;70.26
66213;SHT31;53015;50.046;8.238;2023-03-23T12:31:51;16.43;70.26
66213;SHT31;53015;50.046;8.238;2023-03-23T12:34:25;16.23;70.98
66213;SHT31;53015;50.046;8.238;2023-03-23T12:37:08;16.06;72.41
66213;SHT31;53015;50.046;8.238;2023-03-23T12:39:44;16.01;72.61
66213;SHT31;53015;50.046;8.238;2023-03-23T12:42:19;16.01;71.64
66213;SHT31;53015;50.046;8.238;2023-03-23T12:44:52;15.97;71.69
66213;SHT31;53015;50.046;8.238;2023-03-23T12:47:29;15.95;71.61
66213;SHT31;53015;50.046;8.238;2023-03-23T12:50:00;15.98;71.68
66213;SHT31;53015;50.046;8.238;2023-03-23T12:52:30;16.28;72.25
66213;SHT31;53015;50.046;8.238;2023-03-23T12:55:02;16.40;72.38
66213;SHT31;53015;50.046;8.238;2023-03-23T12:57:33;16.67;70.74
66213;SHT31;53015;50.046;8.238;2023-03-23T13:00:06;16.74;70.82
66213;SHT31;53015;50.046;8.238;2023-03-23T13:02:39;16.77;71.11
66213;SHT31;53015;50.046;8.238;2023-03-23T13:05:09;16.95;70.23
66213;SHT31;53015;50.046;8.238;2023-03-23T13:07:42;17.05;69.39
66213;SHT31;53015;50.046;8.238;2023-03-23T13:10:17;17.05;69.64
66213;SHT31;53015;50.046;8.238;2023-03-23T13:12:45;17.04;69.47
66213;SHT31;53015;50.046;8.238;2023-03-23T13:15:22;17.04;69.66
66213;SHT31;53015;50.046;8.238;2023-03-23T13:17:56;17.19;69.29
66213;SHT31;53015;50.046;8.238;2023-03-23T13:20:53;17.07;68.12
66213;SHT31;53015;50.046;8.238;2023-03-23T13:23:21;16.92;68.68
66213;SHT31;53015;50.046;8.238;2023-03-23T13:25:50;16.75;69.26
66213;SHT31;53015;50.046;8.238;2023-03-23T13:28:20;16.74;68.85
66213;SHT31;53015;50.046;8.238;2023-03-23T13:30:57;16.73;69.10
66213;SHT31;53015;50.046;8.238;2023-03-23T13:33:24;16.64;69.49
66213;SHT31;53015;50.046;8.238;2023-03-23T13:35:50;16.50;70.09
66213;SHT31;53015;50.046;8.238;2023-03-23T13:38:20;16.54;69.30
66213;SHT31;53015;50.046;8.238;2023-03-23T13:40:47;16.39;69.78
66213;SHT31;53015;50.046;8.238;2023-03-23T13:43:13;16.26;70.70
66213;SHT31;53015;50.046;8.238;2023-03-23T13:45:44;16.08;70.87
66213;SHT31;53015;50.046;8.238;2023-03-23T13:48:20;15.99;70.88
66213;SHT31;53015;50.046;8.238;2023-03-23T13:50:53;15.98;71.00
66213;SHT31;53015;50.046;8.238;2023-03-23T13:53:26;15.94;70.79
66213;SHT31;53015;50.046;8.238;2023-03-23T13:56:05;15.92;71.82
66213;SHT31;53015;50.046;8.238;2023-03-23T13:58:31;15.84;72.70
66213;SHT31;53015;50.046;8.238;2023-03-23T14:01:13;15.80;72.79
66213;SHT31;53015;50.046;8.238;2023-03-23T14:03:40;15.88;72.25
66213;SHT31;53015;50.046;8.238;2023-03-23T14:06:13;15.85;72.85
66213;SHT31;53015;50.046;8.238;2023-03-23T14:08:42;15.75;73.39
66213;SHT31;53015;50.046;8.238;2023-03-23T14:11:20;15.77;73.21
66213;SHT31;53015;50.046;8.238;2023-03-23T14:13:58;15.74;73.94
66213;SHT31;53015;50.046;8.238;2023-03-23T14:16:31;15.82;74.07
66213;SHT31;53015;50.046;8.238;2023-03-23T14:18:59;15.78;73.46
66213;SHT31;53015;50.046;8.238;2023-03-23T14:21:33;15.74;72.61
66213;SHT31;53015;50.046;8.238;2023-03-23T14:24:02;15.63;71.86
66213;SHT31;53015;50.046;8.238;2023-03-23T14:26:29;15.60;71.43
66213;SHT31;53015;50.046;8.238;2023-03-23T14:28:58;15.68;70.94
66213;SHT31;53015;50.046;8.238;2023-03-23T14:31:25;15.77;70.11
66213;SHT31;53015;50.046;8.238;2023-03-23T14:33:53;15.78;70.63
66213;SHT31;53015;50.046;8.238;2023-03-23T14:36:20;15.82;70.12
66213;SHT31;53015;50.046;8.238;2023-03-23T14:38:59;15.88;69.98
66213;SHT31;53015;50.046;8.238;2023-03-23T14:41:28;15.90;70.69
66213;SHT31;53015;50.046;8.238;2023-03-23T14:43:54;15.87;69.85
66213;SHT31;53015;50.046;8.238;2023-03-23T14:46:19;15.87;70.08
66213;SHT31;53015;50.046;8.238;2023-03-23T14:48:45;15.95;70.06
66213;SHT31;53015;50.046;8.238;2023-03-23T14:51:17;15.97;69.59
66213;SHT31;53015;50.046;8.238;2023-03-23T14:53:43;16.04;70.09
66213;SHT31;53015;50.046;8.238;2023-03-23T14:56:12;15.94;71.16
66213;SHT31;53015;50.046;8.238;2023-03-23T14:58:38;15.87;70.33
66213;SHT31;53015;50.046;8.238;2023-03-23T15:01:10;15.77;70.50
66213;SHT31;53015;50.046;8.238;2023-03-23T15:03:40;16.01;70.90
66213;SHT31;53015;50.046;8.238;2023-03-23T15:06:12;16.08;70.14
66213;SHT31;53015;50.046;8.238;2023-03-23T15:08:38;16.16;70.19
66213;SHT31;53015;50.046;8.238;2023-03-23T15:11:07;16.15;69.39
66213;SHT31;53015;50.046;8.238;2023-03-23T15:13:35;16.25;69.38
66213;SHT31;53015;50.046;8.238;2023-03-23T15:16:04;16.19;70.24
66213;SHT31;53015;50.046;8.238;2023-03-23T15:18:34;16.16;70.44
66213;SHT31;53015;50.046;8.238;2023-03-23T15:21:09;16.09;69.80
66213;SHT31;53015;50.046;8.238;2023-03-23T15:23:41;16.04;69.93
66213;SHT31;53015;50.046;8.238;2023-03-23T15:26:19;16.01;70.12
66213;SHT31;53015;50.046;8.238;2023-03-23T15:28:47;16.05;70.33
66213;SHT31;53015;50.046;8.238;2023-03-23T15:31:12;16.13;70.05
66213;SHT31;53015;50.046;8.238;2023-03-23T15:33:39;16.19;70.19
66213;SHT31;53015;50.046;8.238;2023-03-23T15:36:14;16.12;69.72
66213;SHT31;53015;50.046;8.238;2023-03-23T15:38:43;16.19;69.69
66213;SHT31;53015;50.046;8.238;2023-03-23T15:41:22;16.12;69.83